UKKK/IEV METAR and TAF weather

Enter ICAO airport designator
Station Type Date Time Source
UKKK METAR 2019/05/20 10:00 UTC NOAA

UKKK 201000Z 13005MPS 100V190 CAVOK 25/10 Q1016 R08/CLRD70 NOSIG


Station Type Date Time Source
UKKK Decoded METAR 2019/05/20 10:00 UTC NOAA

Kyiv, Ukraine (UKKK) 50-24N 030-34E 167M
May 20, 2019 - 06:00 AM EDT / 2019.05.20 1000 UTC
Wind: from the SE (130 degrees) at 11 MPH (10 KT) (direction variable):0
Visibility: greater than 7 mile(s):0
Temperature: 77 F (25 C)
Dew Point: 50 F (10 C)
Relative Humidity: 38%
Pressure (altimeter): 30.00 in. Hg (1016 hPa)
ob: UKKK 201000Z 13005MPS 100V190 CAVOK 25/10 Q1016 R08/CLRD70 NOSIG
cycle: 10

Station Type Date Time Source
UKKK TAF 2019/05/20 06:12 UTC NOAA

TAF TAF UKKK 200501Z 2006/2106 11005G10MPS 9999 SCT040 TX26/2012Z TN13/2103Z
TEMPO 2006/2018 13008G14MPS SCT025CB

Example: see airport list